Main page
METAR-TAF:

METAR-TAF

Airports :

RAF Scampton

Scampton, England

latitude: 53-18-27N, longitude: 000-33-03W, elevation: 62 m

Current weather observation

The report was made 1 hour and 12 minutes ago, at 15:50 UTC
Wind 7 kt from the South/Southwest
Temperature 6°C
Humidity 87%
Pressure 1015 hPa
Visibility 10 km or more

METAR: EGXP 251550Z AUTO 20007KT 9999 // FEW021/// BKN026/// 06/04 Q1015

Time: 17:02 (17:02 UTC)

Forecast

The report was made 27 hours and 43 minutes ago, at 13:19 UTC
Forecast valid from 24 at 15 UTC to 24 at 18 UTC
Wind 5 kt from the West/Southwest
Visibility 10 km or more
Broken clouds at a height of 2200 ft
Becoming
from 24 at 15 UTC to 24 at 18 UTC
Broken clouds at a height of 2500 ft
Becoming
from 24 at 16 UTC to 24 at 18 UTC
Visibility: 5000 m
mist

TAF: EGXP 241319Z 2415/2418 25005KT 9999 BKN022 BECMG 2415/2418 BKN025 BECMG 2416/2418 5000 BR

Weather observations and forecasts of more than 4000 airports (METAR and TAF reports).

The available stations are represented by yellow and red dots on the map.

Hover mouse over dot to see the name of the station.

Then click to see weather observations and forecasts.

To change the map : click on the green buttons with a black cross to zoom in, on the green button with a dash to zoom out, or on the green arrows for adjacent maps.


METAR-TAF: